sensor_id;sensor_type;location;lat;lon;timestamp;P1;durP1;ratioP1;P2;durP2;ratioP2
70320;SDS011;61127;55.826;37.046;2023-11-21T00:00:31;5.38;;;2.88;;
70320;SDS011;61127;55.826;37.046;2023-11-21T00:02:57;7.20;;;2.97;;
70320;SDS011;61127;55.826;37.046;2023-11-21T00:05:23;5.78;;;2.28;;
70320;SDS011;61127;55.826;37.046;2023-11-21T00:07:48;7.20;;;2.90;;
70320;SDS011;61127;55.826;37.046;2023-11-21T00:10:14;4.68;;;2.25;;
70320;SDS011;61127;55.826;37.046;2023-11-21T00:12:41;4.47;;;2.17;;
70320;SDS011;61127;55.826;37.046;2023-11-21T00:15:08;6.28;;;2.47;;
70320;SDS011;61127;55.826;37.046;2023-11-21T00:17:37;3.28;;;1.60;;
70320;SDS011;61127;55.826;37.046;2023-11-21T00:20:03;7.28;;;2.55;;
70320;SDS011;61127;55.826;37.046;2023-11-21T00:22:32;9.00;;;2.67;;
70320;SDS011;61127;55.826;37.046;2023-11-21T00:24:58;6.53;;;2.28;;
70320;SDS011;61127;55.826;37.046;2023-11-21T00:27:24;2.80;;;1.52;;
70320;SDS011;61127;55.826;37.046;2023-11-21T00:29:50;7.33;;;2.83;;
70320;SDS011;61127;55.826;37.046;2023-11-21T00:32:15;5.03;;;1.52;;
70320;SDS011;61127;55.826;37.046;2023-11-21T00:34:41;4.40;;;2.00;;
70320;SDS011;61127;55.826;37.046;2023-11-21T00:37:07;7.55;;;2.90;;
70320;SDS011;61127;55.826;37.046;2023-11-21T00:39:33;6.23;;;2.67;;
70320;SDS011;61127;55.826;37.046;2023-11-21T00:42:00;4.63;;;1.83;;
70320;SDS011;61127;55.826;37.046;2023-11-21T00:44:26;7.82;;;2.80;;
70320;SDS011;61127;55.826;37.046;2023-11-21T00:46:51;9.55;;;2.20;;
70320;SDS011;61127;55.826;37.046;2023-11-21T00:49:17;5.60;;;2.30;;
70320;SDS011;61127;55.826;37.046;2023-11-21T00:51:42;5.70;;;2.72;;
70320;SDS011;61127;55.826;37.046;2023-11-21T00:54:08;6.23;;;2.50;;
70320;SDS011;61127;55.826;37.046;2023-11-21T00:56:34;4.82;;;2.13;;
70320;SDS011;61127;55.826;37.046;2023-11-21T00:59:00;8.13;;;2.15;;
70320;SDS011;61127;55.826;37.046;2023-11-21T01:01:25;4.83;;;2.13;;
70320;SDS011;61127;55.826;37.046;2023-11-21T01:03:51;9.82;;;2.70;;
70320;SDS011;61127;55.826;37.046;2023-11-21T01:06:18;7.43;;;2.25;;
70320;SDS011;61127;55.826;37.046;2023-11-21T01:08:45;5.32;;;2.47;;
70320;SDS011;61127;55.826;37.046;2023-11-21T01:11:11;4.80;;;2.60;;
70320;SDS011;61127;55.826;37.046;2023-11-21T01:13:40;5.03;;;2.30;;
70320;SDS011;61127;55.826;37.046;2023-11-21T01:16:06;4.10;;;2.10;;
70320;SDS011;61127;55.826;37.046;2023-11-21T01:18:34;3.73;;;2.10;;
70320;SDS011;61127;55.826;37.046;2023-11-21T01:21:00;6.80;;;2.53;;
70320;SDS011;61127;55.826;37.046;2023-11-21T01:23:26;4.55;;;2.00;;
70320;SDS011;61127;55.826;37.046;2023-11-21T01:25:52;5.00;;;2.23;;
70320;SDS011;61127;55.826;37.046;2023-11-21T01:28:18;5.88;;;2.17;;
70320;SDS011;61127;55.826;37.046;2023-11-21T01:30:45;5.07;;;2.65;;
70320;SDS011;61127;55.826;37.046;2023-11-21T01:33:11;7.47;;;2.22;;
70320;SDS011;61127;55.826;37.046;2023-11-21T01:35:37;5.13;;;2.33;;
70320;SDS011;61127;55.826;37.046;2023-11-21T01:38:02;7.18;;;2.20;;
70320;SDS011;61127;55.826;37.046;2023-11-21T01:40:29;5.57;;;2.72;;
70320;SDS011;61127;55.826;37.046;2023-11-21T01:42:56;5.47;;;1.97;;
70320;SDS011;61127;55.826;37.046;2023-11-21T01:45:23;3.53;;;1.80;;
70320;SDS011;61127;55.826;37.046;2023-11-21T01:47:50;5.35;;;2.25;;
70320;SDS011;61127;55.826;37.046;2023-11-21T01:50:16;3.83;;;1.85;;
70320;SDS011;61127;55.826;37.046;2023-11-21T01:52:47;6.60;;;2.45;;
70320;SDS011;61127;55.826;37.046;2023-11-21T01:55:14;6.82;;;2.42;;
70320;SDS011;61127;55.826;37.046;2023-11-21T01:57:42;5.00;;;2.38;;
70320;SDS011;61127;55.826;37.046;2023-11-21T02:00:08;5.10;;;2.20;;
70320;SDS011;61127;55.826;37.046;2023-11-21T02:02:45;7.00;;;2.60;;
70320;SDS011;61127;55.826;37.046;2023-11-21T02:05:11;5.40;;;2.30;;
70320;SDS011;61127;55.826;37.046;2023-11-21T02:07:44;5.63;;;2.50;;
70320;SDS011;61127;55.826;37.046;2023-11-21T02:10:11;4.82;;;2.33;;
70320;SDS011;61127;55.826;37.046;2023-11-21T02:12:42;6.18;;;2.50;;
70320;SDS011;61127;55.826;37.046;2023-11-21T02:15:15;5.43;;;2.13;;
70320;SDS011;61127;55.826;37.046;2023-11-21T02:17:45;6.20;;;2.20;;
70320;SDS011;61127;55.826;37.046;2023-11-21T02:20:11;5.65;;;2.22;;
70320;SDS011;61127;55.826;37.046;2023-11-21T02:22:42;5.32;;;2.50;;
70320;SDS011;61127;55.826;37.046;2023-11-21T02:25:08;6.93;;;2.70;;
70320;SDS011;61127;55.826;37.046;2023-11-21T02:27:34;6.07;;;2.13;;
70320;SDS011;61127;55.826;37.046;2023-11-21T02:30:00;6.50;;;2.30;;
70320;SDS011;61127;55.826;37.046;2023-11-21T02:32:29;6.85;;;2.40;;
70320;SDS011;61127;55.826;37.046;2023-11-21T02:34:58;7.90;;;2.57;;
70320;SDS011;61127;55.826;37.046;2023-11-21T02:37:26;6.25;;;2.58;;
70320;SDS011;61127;55.826;37.046;2023-11-21T02:39:52;11.60;;;3.05;;
70320;SDS011;61127;55.826;37.046;2023-11-21T02:42:18;6.13;;;2.70;;
70320;SDS011;61127;55.826;37.046;2023-11-21T02:44:44;6.85;;;2.47;;
70320;SDS011;61127;55.826;37.046;2023-11-21T02:47:10;6.53;;;2.90;;
70320;SDS011;61127;55.826;37.046;2023-11-21T02:49:35;8.15;;;3.15;;
70320;SDS011;61127;55.826;37.046;2023-11-21T02:52:01;7.43;;;3.23;;
70320;SDS011;61127;55.826;37.046;2023-11-21T02:54:27;7.80;;;3.25;;
70320;SDS011;61127;55.826;37.046;2023-11-21T02:56:53;9.45;;;3.20;;
70320;SDS011;61127;55.826;37.046;2023-11-21T02:59:18;7.80;;;3.20;;
70320;SDS011;61127;55.826;37.046;2023-11-21T03:01:45;9.30;;;3.70;;
70320;SDS011;61127;55.826;37.046;2023-11-21T03:04:10;6.90;;;3.33;;
70320;SDS011;61127;55.826;37.046;2023-11-21T03:06:36;8.75;;;3.55;;
70320;SDS011;61127;55.826;37.046;2023-11-21T03:09:02;9.77;;;3.87;;
70320;SDS011;61127;55.826;37.046;2023-11-21T03:11:27;10.18;;;3.85;;
70320;SDS011;61127;55.826;37.046;2023-11-21T03:13:53;11.77;;;4.50;;
70320;SDS011;61127;55.826;37.046;2023-11-21T03:16:19;9.48;;;4.45;;
70320;SDS011;61127;55.826;37.046;2023-11-21T03:18:45;8.63;;;3.60;;
70320;SDS011;61127;55.826;37.046;2023-11-21T03:21:11;8.35;;;3.63;;
70320;SDS011;61127;55.826;37.046;2023-11-21T03:23:37;7.00;;;3.45;;
70320;SDS011;61127;55.826;37.046;2023-11-21T03:26:03;11.53;;;3.47;;
70320;SDS011;61127;55.826;37.046;2023-11-21T03:28:30;6.78;;;3.30;;
70320;SDS011;61127;55.826;37.046;2023-11-21T03:30:57;8.45;;;3.05;;
70320;SDS011;61127;55.826;37.046;2023-11-21T03:33:24;7.30;;;3.53;;
70320;SDS011;61127;55.826;37.046;2023-11-21T03:35:51;10.30;;;3.40;;
70320;SDS011;61127;55.826;37.046;2023-11-21T03:38:19;8.93;;;3.40;;
70320;SDS011;61127;55.826;37.046;2023-11-21T03:40:45;7.35;;;3.33;;
70320;SDS011;61127;55.826;37.046;2023-11-21T03:43:10;7.53;;;3.17;;
70320;SDS011;61127;55.826;37.046;2023-11-21T03:45:36;5.78;;;2.42;;
70320;SDS011;61127;55.826;37.046;2023-11-21T03:48:02;6.23;;;3.00;;
70320;SDS011;61127;55.826;37.046;2023-11-21T03:50:28;7.85;;;3.10;;
70320;SDS011;61127;55.826;37.046;2023-11-21T03:52:54;7.10;;;3.42;;
70320;SDS011;61127;55.826;37.046;2023-11-21T03:55:21;9.23;;;3.03;;
70320;SDS011;61127;55.826;37.046;2023-11-21T03:57:46;6.50;;;2.80;;
70320;SDS011;61127;55.826;37.046;2023-11-21T04:00:12;8.43;;;3.20;;
70320;SDS011;61127;55.826;37.046;2023-11-21T04:02:38;7.97;;;3.20;;
70320;SDS011;61127;55.826;37.046;2023-11-21T04:05:05;7.32;;;3.08;;
70320;SDS011;61127;55.826;37.046;2023-11-21T04:07:32;6.18;;;2.90;;
70320;SDS011;61127;55.826;37.046;2023-11-21T04:09:59;5.88;;;2.25;;
70320;SDS011;61127;55.826;37.046;2023-11-21T04:12:24;7.57;;;3.17;;
70320;SDS011;61127;55.826;37.046;2023-11-21T04:14:50;6.32;;;2.95;;
70320;SDS011;61127;55.826;37.046;2023-11-21T04:17:19;6.47;;;3.27;;
70320;SDS011;61127;55.826;37.046;2023-11-21T04:19:46;8.00;;;3.22;;
70320;SDS011;61127;55.826;37.046;2023-11-21T04:22:11;9.13;;;3.25;;
70320;SDS011;61127;55.826;37.046;2023-11-21T04:24:37;5.80;;;2.78;;
70320;SDS011;61127;55.826;37.046;2023-11-21T04:27:03;5.53;;;2.80;;
70320;SDS011;61127;55.826;37.046;2023-11-21T04:29:29;6.60;;;2.80;;
70320;SDS011;61127;55.826;37.046;2023-11-21T04:31:55;6.68;;;2.85;;
70320;SDS011;61127;55.826;37.046;2023-11-21T04:34:20;6.72;;;2.75;;
70320;SDS011;61127;55.826;37.046;2023-11-21T04:36:46;6.50;;;2.70;;
70320;SDS011;61127;55.826;37.046;2023-11-21T04:39:12;4.65;;;2.45;;
70320;SDS011;61127;55.826;37.046;2023-11-21T04:41:38;7.30;;;3.17;;
70320;SDS011;61127;55.826;37.046;2023-11-21T04:44:05;5.78;;;2.70;;
70320;SDS011;61127;55.826;37.046;2023-11-21T04:46:31;5.75;;;2.42;;
70320;SDS011;61127;55.826;37.046;2023-11-21T04:48:57;6.77;;;2.83;;
70320;SDS011;61127;55.826;37.046;2023-11-21T04:51:23;5.40;;;2.58;;
70320;SDS011;61127;55.826;37.046;2023-11-21T04:53:49;6.97;;;2.90;;
70320;SDS011;61127;55.826;37.046;2023-11-21T04:56:15;5.73;;;2.97;;
70320;SDS011;61127;55.826;37.046;2023-11-21T04:58:41;9.52;;;2.90;;
70320;SDS011;61127;55.826;37.046;2023-11-21T05:01:07;5.82;;;2.80;;
70320;SDS011;61127;55.826;37.046;2023-11-21T05:03:33;6.73;;;2.90;;
70320;SDS011;61127;55.826;37.046;2023-11-21T05:06:01;9.02;;;2.67;;
70320;SDS011;61127;55.826;37.046;2023-11-21T05:08:27;7.35;;;2.67;;
70320;SDS011;61127;55.826;37.046;2023-11-21T05:10:53;4.43;;;2.63;;
70320;SDS011;61127;55.826;37.046;2023-11-21T05:13:20;7.43;;;2.75;;
70320;SDS011;61127;55.826;37.046;2023-11-21T05:15:46;7.40;;;3.13;;
70320;SDS011;61127;55.826;37.046;2023-11-21T05:18:11;6.85;;;2.72;;
70320;SDS011;61127;55.826;37.046;2023-11-21T05:20:39;6.90;;;2.50;;
70320;SDS011;61127;55.826;37.046;2023-11-21T05:23:06;4.67;;;2.30;;
70320;SDS011;61127;55.826;37.046;2023-11-21T05:25:33;4.97;;;2.30;;
70320;SDS011;61127;55.826;37.046;2023-11-21T05:27:59;7.15;;;3.15;;
70320;SDS011;61127;55.826;37.046;2023-11-21T05:30:27;8.50;;;2.70;;
70320;SDS011;61127;55.826;37.046;2023-11-21T05:32:53;6.22;;;2.90;;
70320;SDS011;61127;55.826;37.046;2023-11-21T05:35:19;8.43;;;2.80;;
70320;SDS011;61127;55.826;37.046;2023-11-21T05:37:45;5.15;;;2.60;;
70320;SDS011;61127;55.826;37.046;2023-11-21T05:40:11;5.63;;;2.60;;
70320;SDS011;61127;55.826;37.046;2023-11-21T05:42:38;6.50;;;3.00;;
70320;SDS011;61127;55.826;37.046;2023-11-21T05:45:04;6.85;;;2.80;;
70320;SDS011;61127;55.826;37.046;2023-11-21T05:47:43;6.90;;;3.00;;
70320;SDS011;61127;55.826;37.046;2023-11-21T05:50:09;8.25;;;2.83;;
70320;SDS011;61127;55.826;37.046;2023-11-21T05:52:37;5.60;;;2.27;;
70320;SDS011;61127;55.826;37.046;2023-11-21T05:55:03;6.30;;;2.50;;
70320;SDS011;61127;55.826;37.046;2023-11-21T05:57:35;6.30;;;2.92;;
70320;SDS011;61127;55.826;37.046;2023-11-21T06:00:04;6.97;;;2.88;;
70320;SDS011;61127;55.826;37.046;2023-11-21T06:02:37;5.05;;;2.33;;
70320;SDS011;61127;55.826;37.046;2023-11-21T06:05:04;9.07;;;2.87;;
70320;SDS011;61127;55.826;37.046;2023-11-21T06:07:30;8.13;;;3.45;;
70320;SDS011;61127;55.826;37.046;2023-11-21T06:09:55;8.20;;;2.92;;
70320;SDS011;61127;55.826;37.046;2023-11-21T06:12:21;8.30;;;2.93;;
70320;SDS011;61127;55.826;37.046;2023-11-21T06:14:47;5.57;;;2.77;;
70320;SDS011;61127;55.826;37.046;2023-11-21T06:17:13;7.97;;;2.65;;
70320;SDS011;61127;55.826;37.046;2023-11-21T06:19:39;7.70;;;3.10;;
70320;SDS011;61127;55.826;37.046;2023-11-21T06:22:05;6.90;;;2.77;;
70320;SDS011;61127;55.826;37.046;2023-11-21T06:24:31;6.13;;;2.28;;
70320;SDS011;61127;55.826;37.046;2023-11-21T06:26:57;6.70;;;2.97;;
70320;SDS011;61127;55.826;37.046;2023-11-21T06:29:23;8.87;;;3.10;;
70320;SDS011;61127;55.826;37.046;2023-11-21T06:31:49;7.83;;;3.40;;
70320;SDS011;61127;55.826;37.046;2023-11-21T06:34:14;7.30;;;2.90;;
70320;SDS011;61127;55.826;37.046;2023-11-21T06:36:40;8.02;;;3.08;;
70320;SDS011;61127;55.826;37.046;2023-11-21T06:39:06;5.87;;;2.80;;
70320;SDS011;61127;55.826;37.046;2023-11-21T06:41:33;9.02;;;3.45;;
70320;SDS011;61127;55.826;37.046;2023-11-21T06:43:59;7.50;;;3.13;;
70320;SDS011;61127;55.826;37.046;2023-11-21T06:46:24;6.70;;;2.90;;
70320;SDS011;61127;55.826;37.046;2023-11-21T06:48:50;8.80;;;3.25;;
70320;SDS011;61127;55.826;37.046;2023-11-21T06:51:16;5.73;;;3.00;;
70320;SDS011;61127;55.826;37.046;2023-11-21T06:53:44;6.13;;;2.80;;
70320;SDS011;61127;55.826;37.046;2023-11-21T06:56:18;6.90;;;2.70;;
70320;SDS011;61127;55.826;37.046;2023-11-21T06:58:47;6.85;;;2.90;;
70320;SDS011;61127;55.826;37.046;2023-11-21T07:01:13;9.17;;;3.20;;
70320;SDS011;61127;55.826;37.046;2023-11-21T07:03:39;7.95;;;3.00;;
70320;SDS011;61127;55.826;37.046;2023-11-21T07:06:11;7.15;;;3.10;;
70320;SDS011;61127;55.826;37.046;2023-11-21T07:08:37;6.80;;;3.10;;
70320;SDS011;61127;55.826;37.046;2023-11-21T07:11:08;7.13;;;3.22;;
70320;SDS011;61127;55.826;37.046;2023-11-21T07:13:34;8.38;;;3.40;;
70320;SDS011;61127;55.826;37.046;2023-11-21T07:16:00;6.45;;;3.17;;
70320;SDS011;61127;55.826;37.046;2023-11-21T07:18:26;6.07;;;3.00;;
70320;SDS011;61127;55.826;37.046;2023-11-21T07:20:52;8.00;;;3.15;;
70320;SDS011;61127;55.826;37.046;2023-11-21T07:23:17;7.07;;;2.93;;
70320;SDS011;61127;55.826;37.046;2023-11-21T07:25:43;13.50;;;3.63;;
70320;SDS011;61127;55.826;37.046;2023-11-21T07:28:09;7.00;;;2.80;;
70320;SDS011;61127;55.826;37.046;2023-11-21T07:30:35;7.07;;;2.92;;
70320;SDS011;61127;55.826;37.046;2023-11-21T07:33:01;6.87;;;2.97;;
70320;SDS011;61127;55.826;37.046;2023-11-21T07:35:27;8.38;;;3.40;;
70320;SDS011;61127;55.826;37.046;2023-11-21T07:37:53;7.33;;;3.37;;
70320;SDS011;61127;55.826;37.046;2023-11-21T07:40:18;7.80;;;3.08;;
70320;SDS011;61127;55.826;37.046;2023-11-21T07:42:44;7.32;;;2.88;;
70320;SDS011;61127;55.826;37.046;2023-11-21T07:45:10;8.13;;;3.22;;
70320;SDS011;61127;55.826;37.046;2023-11-21T07:47:35;5.47;;;2.70;;
70320;SDS011;61127;55.826;37.046;2023-11-21T07:50:02;6.07;;;3.03;;
70320;SDS011;61127;55.826;37.046;2023-11-21T07:52:31;5.95;;;2.70;;
70320;SDS011;61127;55.826;37.046;2023-11-21T07:54:57;12.20;;;3.20;;
70320;SDS011;61127;55.826;37.046;2023-11-21T07:57:22;5.72;;;2.45;;
70320;SDS011;61127;55.826;37.046;2023-11-21T07:59:48;5.37;;;2.53;;
70320;SDS011;61127;55.826;37.046;2023-11-21T08:02:15;7.00;;;2.70;;
70320;SDS011;61127;55.826;37.046;2023-11-21T08:04:42;6.45;;;2.65;;
70320;SDS011;61127;55.826;37.046;2023-11-21T08:07:08;6.60;;;2.80;;
70320;SDS011;61127;55.826;37.046;2023-11-21T08:09:35;8.82;;;2.90;;
70320;SDS011;61127;55.826;37.046;2023-11-21T08:12:00;6.20;;;2.70;;
70320;SDS011;61127;55.826;37.046;2023-11-21T08:14:28;6.72;;;2.63;;
70320;SDS011;61127;55.826;37.046;2023-11-21T08:16:53;5.10;;;2.70;;
70320;SDS011;61127;55.826;37.046;2023-11-21T08:19:23;7.57;;;3.17;;
70320;SDS011;61127;55.826;37.046;2023-11-21T08:21:50;5.37;;;2.00;;
70320;SDS011;61127;55.826;37.046;2023-11-21T08:24:16;4.95;;;2.00;;
70320;SDS011;61127;55.826;37.046;2023-11-21T08:26:42;5.78;;;2.55;;
70320;SDS011;61127;55.826;37.046;2023-11-21T08:29:08;6.17;;;2.53;;
70320;SDS011;61127;55.826;37.046;2023-11-21T08:31:34;5.07;;;2.47;;
70320;SDS011;61127;55.826;37.046;2023-11-21T08:34:00;6.57;;;2.10;;
70320;SDS011;61127;55.826;37.046;2023-11-21T08:37:15;6.55;;;2.50;;
70320;SDS011;61127;55.826;37.046;2023-11-21T08:40:35;5.50;;;2.20;;
70320;SDS011;61127;55.826;37.046;2023-11-21T08:43:01;6.38;;;2.20;;
70320;SDS011;61127;55.826;37.046;2023-11-21T08:45:30;4.40;;;2.00;;
70320;SDS011;61127;55.826;37.046;2023-11-21T08:47:56;4.95;;;2.30;;
70320;SDS011;61127;55.826;37.046;2023-11-21T08:50:22;6.67;;;2.33;;
70320;SDS011;61127;55.826;37.046;2023-11-21T08:52:47;7.28;;;2.25;;
70320;SDS011;61127;55.826;37.046;2023-11-21T08:55:13;5.27;;;1.97;;
70320;SDS011;61127;55.826;37.046;2023-11-21T08:58:13;4.75;;;2.00;;
70320;SDS011;61127;55.826;37.046;2023-11-21T09:00:43;4.30;;;2.00;;
70320;SDS011;61127;55.826;37.046;2023-11-21T09:03:55;5.35;;;2.20;;
70320;SDS011;61127;55.826;37.046;2023-11-21T09:06:20;5.63;;;2.13;;
70320;SDS011;61127;55.826;37.046;2023-11-21T09:08:46;5.05;;;1.88;;
70320;SDS011;61127;55.826;37.046;2023-11-21T09:11:12;4.00;;;1.73;;
70320;SDS011;61127;55.826;37.046;2023-11-21T09:13:39;4.03;;;1.90;;
70320;SDS011;61127;55.826;37.046;2023-11-21T09:16:04;3.40;;;2.00;;
70320;SDS011;61127;55.826;37.046;2023-11-21T09:18:31;4.05;;;1.75;;
70320;SDS011;61127;55.826;37.046;2023-11-21T09:20:57;3.87;;;1.53;;
70320;SDS011;61127;55.826;37.046;2023-11-21T09:23:23;3.63;;;1.83;;
70320;SDS011;61127;55.826;37.046;2023-11-21T09:25:49;3.58;;;1.70;;
70320;SDS011;61127;55.826;37.046;2023-11-21T09:28:15;5.07;;;1.88;;
70320;SDS011;61127;55.826;37.046;2023-11-21T09:30:42;4.03;;;2.03;;
70320;SDS011;61127;55.826;37.046;2023-11-21T09:33:08;4.70;;;2.28;;
70320;SDS011;61127;55.826;37.046;2023-11-21T09:35:39;5.63;;;2.10;;
70320;SDS011;61127;55.826;37.046;2023-11-21T09:38:05;3.78;;;1.70;;
70320;SDS011;61127;55.826;37.046;2023-11-21T09:40:36;3.57;;;1.70;;
70320;SDS011;61127;55.826;37.046;2023-11-21T09:43:09;4.32;;;1.95;;
70320;SDS011;61127;55.826;37.046;2023-11-21T09:45:41;6.85;;;2.38;;
70320;SDS011;61127;55.826;37.046;2023-11-21T09:48:10;7.95;;;2.42;;
70320;SDS011;61127;55.826;37.046;2023-11-21T09:50:36;4.72;;;2.05;;
70320;SDS011;61127;55.826;37.046;2023-11-21T09:53:24;4.07;;;1.80;;
70320;SDS011;61127;55.826;37.046;2023-11-21T09:55:53;3.97;;;1.73;;
70320;SDS011;61127;55.826;37.046;2023-11-21T09:58:19;3.45;;;1.90;;
70320;SDS011;61127;55.826;37.046;2023-11-21T10:00:53;4.15;;;1.60;;
70320;SDS011;61127;55.826;37.046;2023-11-21T10:03:24;4.63;;;1.50;;
70320;SDS011;61127;55.826;37.046;2023-11-21T10:05:50;10.17;;;2.47;;
70320;SDS011;61127;55.826;37.046;2023-11-21T10:08:18;3.47;;;1.95;;
70320;SDS011;61127;55.826;37.046;2023-11-21T10:10:46;4.78;;;2.00;;
70320;SDS011;61127;55.826;37.046;2023-11-21T10:13:13;11.70;;;3.97;;
70320;SDS011;61127;55.826;37.046;2023-11-21T10:15:42;5.88;;;2.75;;
70320;SDS011;61127;55.826;37.046;2023-11-21T10:18:14;5.95;;;2.38;;
70320;SDS011;61127;55.826;37.046;2023-11-21T10:20:40;5.63;;;2.00;;
70320;SDS011;61127;55.826;37.046;2023-11-21T10:23:06;8.32;;;2.55;;
70320;SDS011;61127;55.826;37.046;2023-11-21T10:25:36;3.00;;;1.40;;
70320;SDS011;61127;55.826;37.046;2023-11-21T10:28:02;5.57;;;1.98;;
70320;SDS011;61127;55.826;37.046;2023-11-21T10:30:32;5.45;;;2.30;;
70320;SDS011;61127;55.826;37.046;2023-11-21T10:32:59;6.88;;;2.70;;
70320;SDS011;61127;55.826;37.046;2023-11-21T10:35:48;5.63;;;2.10;;
70320;SDS011;61127;55.826;37.046;2023-11-21T10:38:17;4.73;;;1.90;;
70320;SDS011;61127;55.826;37.046;2023-11-21T10:40:43;4.35;;;1.98;;
70320;SDS011;61127;55.826;37.046;2023-11-21T10:43:10;5.25;;;2.58;;
70320;SDS011;61127;55.826;37.046;2023-11-21T10:45:39;11.02;;;3.65;;
70320;SDS011;61127;55.826;37.046;2023-11-21T10:48:05;5.68;;;2.45;;
70320;SDS011;61127;55.826;37.046;2023-11-21T11:08:20;7.53;;;2.10;;
70320;SDS011;61127;55.826;37.046;2023-11-21T11:10:51;3.50;;;1.70;;
70320;SDS011;61127;55.826;37.046;2023-11-21T11:13:17;3.60;;;1.73;;
70320;SDS011;61127;55.826;37.046;2023-11-21T11:15:47;3.40;;;1.85;;
70320;SDS011;61127;55.826;37.046;2023-11-21T11:18:12;4.25;;;1.75;;
70320;SDS011;61127;55.826;37.046;2023-11-21T11:20:39;4.93;;;2.13;;
70320;SDS011;61127;55.826;37.046;2023-11-21T11:26:01;4.10;;;1.92;;
70320;SDS011;61127;55.826;37.046;2023-11-21T11:28:44;5.03;;;1.80;;
70320;SDS011;61127;55.826;37.046;2023-11-21T11:31:47;4.15;;;2.00;;
70320;SDS011;61127;55.826;37.046;2023-11-21T11:39:39;5.57;;;1.90;;
70320;SDS011;61127;55.826;37.046;2023-11-21T11:42:13;3.97;;;1.67;;
70320;SDS011;61127;55.826;37.046;2023-11-21T11:47:24;3.90;;;1.87;;
70320;SDS011;61127;55.826;37.046;2023-11-21T11:52:40;5.03;;;2.00;;
70320;SDS011;61127;55.826;37.046;2023-11-21T11:55:11;5.13;;;1.75;;
70320;SDS011;61127;55.826;37.046;2023-11-21T11:57:37;3.47;;;1.38;;
70320;SDS011;61127;55.826;37.046;2023-11-21T12:02:35;6.05;;;2.13;;
70320;SDS011;61127;55.826;37.046;2023-11-21T12:05:13;5.70;;;1.90;;
70320;SDS011;61127;55.826;37.046;2023-11-21T12:10:11;3.67;;;1.85;;
70320;SDS011;61127;55.826;37.046;2023-11-21T12:12:59;4.27;;;1.90;;
70320;SDS011;61127;55.826;37.046;2023-11-21T12:15:29;4.93;;;2.05;;
70320;SDS011;61127;55.826;37.046;2023-11-21T12:17:56;4.93;;;1.85;;
70320;SDS011;61127;55.826;37.046;2023-11-21T12:20:22;4.78;;;1.90;;
70320;SDS011;61127;55.826;37.046;2023-11-21T12:22:49;6.35;;;2.13;;
70320;SDS011;61127;55.826;37.046;2023-11-21T12:25:25;5.67;;;2.20;;
70320;SDS011;61127;55.826;37.046;2023-11-21T12:27:54;4.63;;;1.92;;
70320;SDS011;61127;55.826;37.046;2023-11-21T12:30:25;2.85;;;1.60;;
70320;SDS011;61127;55.826;37.046;2023-11-21T12:32:54;4.95;;;1.80;;
70320;SDS011;61127;55.826;37.046;2023-11-21T12:35:22;3.50;;;1.98;;
70320;SDS011;61127;55.826;37.046;2023-11-21T12:37:48;3.73;;;1.57;;
70320;SDS011;61127;55.826;37.046;2023-11-21T12:40:14;3.78;;;1.75;;
70320;SDS011;61127;55.826;37.046;2023-11-21T12:42:41;3.33;;;1.48;;
70320;SDS011;61127;55.826;37.046;2023-11-21T12:45:28;3.25;;;1.70;;
70320;SDS011;61127;55.826;37.046;2023-11-21T12:48:00;2.83;;;1.60;;
70320;SDS011;61127;55.826;37.046;2023-11-21T12:50:29;4.80;;;1.83;;
70320;SDS011;61127;55.826;37.046;2023-11-21T12:53:01;3.97;;;1.80;;
70320;SDS011;61127;55.826;37.046;2023-11-21T12:55:29;3.75;;;1.90;;
70320;SDS011;61127;55.826;37.046;2023-11-21T12:57:55;4.75;;;1.92;;
70320;SDS011;61127;55.826;37.046;2023-11-21T13:00:28;6.67;;;2.27;;
70320;SDS011;61127;55.826;37.046;2023-11-21T13:02:55;7.30;;;2.15;;
70320;SDS011;61127;55.826;37.046;2023-11-21T13:05:28;4.95;;;2.00;;
70320;SDS011;61127;55.826;37.046;2023-11-21T13:07:54;5.15;;;1.70;;
70320;SDS011;61127;55.826;37.046;2023-11-21T13:10:26;5.88;;;1.70;;
70320;SDS011;61127;55.826;37.046;2023-11-21T13:12:59;4.53;;;1.80;;
70320;SDS011;61127;55.826;37.046;2023-11-21T13:15:28;4.28;;;1.92;;
70320;SDS011;61127;55.826;37.046;2023-11-21T13:17:57;6.18;;;2.20;;
70320;SDS011;61127;55.826;37.046;2023-11-21T13:20:23;5.00;;;2.38;;
70320;SDS011;61127;55.826;37.046;2023-11-21T13:22:54;5.20;;;2.42;;
70320;SDS011;61127;55.826;37.046;2023-11-21T13:25:21;5.17;;;2.20;;
70320;SDS011;61127;55.826;37.046;2023-11-21T13:27:46;6.30;;;2.30;;
70320;SDS011;61127;55.826;37.046;2023-11-21T13:30:13;5.35;;;1.98;;
70320;SDS011;61127;55.826;37.046;2023-11-21T13:32:41;6.93;;;2.47;;
70320;SDS011;61127;55.826;37.046;2023-11-21T13:35:07;5.47;;;2.33;;
70320;SDS011;61127;55.826;37.046;2023-11-21T13:37:39;3.65;;;1.58;;
70320;SDS011;61127;55.826;37.046;2023-11-21T13:40:05;6.68;;;2.60;;
70320;SDS011;61127;55.826;37.046;2023-11-21T13:42:40;3.80;;;1.95;;
70320;SDS011;61127;55.826;37.046;2023-11-21T13:45:07;9.77;;;2.53;;
70320;SDS011;61127;55.826;37.046;2023-11-21T13:47:33;5.55;;;2.33;;
70320;SDS011;61127;55.826;37.046;2023-11-21T13:50:02;5.30;;;2.70;;
70320;SDS011;61127;55.826;37.046;2023-11-21T13:52:29;5.25;;;2.70;;
70320;SDS011;61127;55.826;37.046;2023-11-21T13:54:58;6.95;;;2.97;;
70320;SDS011;61127;55.826;37.046;2023-11-21T13:57:28;7.70;;;2.57;;
70320;SDS011;61127;55.826;37.046;2023-11-21T13:59:54;5.28;;;2.53;;
70320;SDS011;61127;55.826;37.046;2023-11-21T14:02:20;5.93;;;2.67;;
70320;SDS011;61127;55.826;37.046;2023-11-21T14:04:53;5.85;;;2.70;;
70320;SDS011;61127;55.826;37.046;2023-11-21T14:07:26;4.93;;;2.65;;
70320;SDS011;61127;55.826;37.046;2023-11-21T14:10:04;4.90;;;2.72;;
70320;SDS011;61127;55.826;37.046;2023-11-21T14:12:38;7.03;;;2.57;;
70320;SDS011;61127;55.826;37.046;2023-11-21T14:15:06;5.10;;;2.13;;
70320;SDS011;61127;55.826;37.046;2023-11-21T14:17:34;6.20;;;2.47;;
70320;SDS011;61127;55.826;37.046;2023-11-21T14:20:03;6.18;;;2.22;;
70320;SDS011;61127;55.826;37.046;2023-11-21T14:22:31;4.80;;;2.15;;
70320;SDS011;61127;55.826;37.046;2023-11-21T14:24:56;7.33;;;2.30;;
70320;SDS011;61127;55.826;37.046;2023-11-21T14:27:25;4.85;;;2.40;;
70320;SDS011;61127;55.826;37.046;2023-11-21T14:29:54;7.13;;;2.20;;
70320;SDS011;61127;55.826;37.046;2023-11-21T14:33:13;6.40;;;2.63;;
70320;SDS011;61127;55.826;37.046;2023-11-21T14:35:42;6.20;;;2.70;;
70320;SDS011;61127;55.826;37.046;2023-11-21T14:38:08;5.40;;;2.40;;
70320;SDS011;61127;55.826;37.046;2023-11-21T14:40:35;6.60;;;1.98;;
70320;SDS011;61127;55.826;37.046;2023-11-21T14:43:01;6.90;;;2.47;;
70320;SDS011;61127;55.826;37.046;2023-11-21T14:45:28;6.03;;;2.50;;
70320;SDS011;61127;55.826;37.046;2023-11-21T14:47:55;9.48;;;2.67;;
70320;SDS011;61127;55.826;37.046;2023-11-21T14:50:39;6.80;;;2.90;;
70320;SDS011;61127;55.826;37.046;2023-11-21T14:53:08;4.88;;;2.17;;
70320;SDS011;61127;55.826;37.046;2023-11-21T14:55:35;6.37;;;2.80;;
70320;SDS011;61127;55.826;37.046;2023-11-21T14:58:13;2.95;;;1.67;;
70320;SDS011;61127;55.826;37.046;2023-11-21T15:00:44;5.18;;;2.20;;
70320;SDS011;61127;55.826;37.046;2023-11-21T15:03:10;3.47;;;1.83;;
70320;SDS011;61127;55.826;37.046;2023-11-21T15:05:43;5.38;;;2.10;;
70320;SDS011;61127;55.826;37.046;2023-11-21T15:08:09;5.40;;;2.30;;
70320;SDS011;61127;55.826;37.046;2023-11-21T15:10:51;6.55;;;2.40;;
70320;SDS011;61127;55.826;37.046;2023-11-21T15:13:21;4.13;;;2.00;;
70320;SDS011;61127;55.826;37.046;2023-11-21T15:15:51;7.60;;;2.53;;